Time;durP1;ratioP1;P1;durP2;ratioP2;P2;SDS_P1;SDS_P2;PMS_P1;PMS_P2;Temp;Humidity;BMP_temperature;BMP_pressure;BME280_temperature;BME280_humidity;BME280_pressure;Samples;Min_cycle;Max_cycle;Signal;HPM_P1;HPM_P2
2022/06/16 00:02:30;;;;;;;5.13;4.60;;;;;;;15.73;68.79;101963.50;10539662;28;20431;-74
2022/06/16 00:07:31;;;;;;;8.07;4.45;;;;;;;15.64;68.48;101956.53;10521134;28;20048;-74
2022/06/16 00:12:31;;;;;;;5.28;3.67;;;;;;;15.53;68.49;101952.47;10539851;28;20070;-73
2022/06/16 00:17:31;;;;;;;6.13;3.58;;;;;;;15.45;68.97;101958.13;10522909;28;20457;-74
2022/06/16 00:22:32;;;;;;;5.85;4.70;;;;;;;15.40;68.64;101955.16;10540215;28;20106;-74
2022/06/16 00:27:32;;;;;;;6.40;4.38;;;;;;;15.34;70.39;101965.00;10530136;28;20043;-73
2022/06/16 00:32:33;;;;;;;12.00;4.10;;;;;;;15.31;69.34;101964.56;10530224;28;20028;-74
2022/06/16 00:37:33;;;;;;;7.70;3.80;;;;;;;15.20;70.45;101976.06;10546432;28;20119;-74
2022/06/16 00:42:34;;;;;;;5.53;4.45;;;;;;;15.11;68.07;101981.69;10546935;28;20039;-74
2022/06/16 00:47:34;;;;;;;8.68;4.10;;;;;;;15.02;68.70;101976.59;10528363;28;20093;-74
2022/06/16 00:52:35;;;;;;;6.47;4.10;;;;;;;14.98;69.00;101984.34;10527869;28;20032;-74
2022/06/16 00:57:46;;;;;;;4.40;4.00;;;;;;;14.85;69.02;101982.34;10546207;28;20032;-74
2022/06/16 01:02:47;;;;;;;4.97;4.32;;;;;;;14.74;68.24;101988.38;10528746;28;20058;-74
2022/06/16 01:07:47;;;;;;;7.05;4.78;;;;;;;14.64;68.26;101993.31;10528430;28;20043;-73
2022/06/16 01:18:52;;;;;;;7.72;5.45;;;;;;;14.51;71.53;101983.13;10530617;28;20036;-74
2022/06/16 01:24:20;;;;;;;7.30;5.00;;;;;;;14.48;71.99;101991.69;10459897;28;20047;-73
2022/06/16 01:29:33;;;;;;;7.95;4.78;;;;;;;14.38;71.33;101993.91;10544547;28;20031;-74
2022/06/16 01:34:54;;;;;;;6.40;4.63;;;;;;;14.27;71.16;101995.28;10528940;28;20032;-74
2022/06/16 01:40:07;;;;;;;7.85;5.60;;;;;;;14.14;70.74;102008.78;10528445;28;20534;-74
2022/06/16 01:45:18;;;;;;;11.00;4.63;;;;;;;14.01;70.11;102008.63;10511322;28;20078;-73
2022/06/16 01:50:21;;;;;;;39.08;21.48;;;;;;;13.98;70.10;102014.47;10526845;28;20035;-74
2022/06/16 01:55:32;;;;;;;6.70;5.35;;;;;;;13.91;71.46;102004.34;10526103;28;20381;-74
2022/06/16 02:00:33;;;;;;;5.93;5.20;;;;;;;13.92;72.91;102010.63;10527075;28;20088;-73
2022/06/16 02:05:44;;;;;;;8.20;5.43;;;;;;;13.89;74.67;102014.59;10510658;28;20108;-74
2022/06/16 02:10:49;;;;;;;8.32;4.68;;;;;;;13.88;75.21;102018.34;10525961;28;20073;-73
2022/06/16 02:16:02;;;;;;;7.10;5.65;;;;;;;13.84;75.02;102008.84;10509178;28;20135;-74
2022/06/16 02:21:13;;;;;;;6.75;5.18;;;;;;;13.77;75.55;102007.09;10525909;28;20028;-73
2022/06/16 02:26:15;;;;;;;12.45;6.05;;;;;;;13.72;75.58;102013.13;10524570;28;20028;-74
2022/06/16 02:31:18;;;;;;;6.78;5.63;;;;;;;13.67;73.60;102023.75;10525148;28;20043;-74
2022/06/16 02:36:29;;;;;;;5.60;5.05;;;;;;;13.61;73.12;102029.94;10543261;28;20484;-74
2022/06/16 02:42:01;;;;;;;8.70;5.53;;;;;;;13.50;73.62;102034.00;10507382;28;20462;-73
2022/06/16 02:47:48;;;;;;;10.55;4.82;;;;;;;13.49;73.36;102037.72;10525193;28;20117;-74
2022/06/16 02:52:53;;;;;;;6.22;5.47;;;;;;;13.44;72.67;102045.63;10530590;28;20040;-74
2022/06/16 02:57:55;;;;;;;7.03;5.15;;;;;;;13.38;72.07;102043.66;10507683;28;20024;-74
2022/06/16 03:02:55;;;;;;;9.13;5.07;;;;;;;13.35;72.10;102039.44;10505957;28;20060;-74
2022/06/16 03:07:56;;;;;;;4.03;3.78;;;;;;;13.31;73.52;102040.03;10522921;28;20036;-74
2022/06/16 03:12:56;;;;;;;6.60;4.90;;;;;;;13.36;73.62;102051.16;10540260;28;20074;-73
2022/06/16 03:17:56;;;;;;;6.97;4.50;;;;;;;13.35;72.35;102068.53;10541727;28;20046;-73
2022/06/16 03:22:57;;;;;;;4.70;4.18;;;;;;;13.32;72.35;102063.47;10541152;28;20480;-74
2022/06/16 03:27:58;;;;;;;4.50;4.15;;;;;;;13.36;72.13;102062.03;10522339;28;20168;-74
2022/06/16 03:32:59;;;;;;;7.32;4.97;;;;;;;13.41;71.26;102065.91;10524430;28;20036;-74
2022/06/16 03:38:03;;;;;;;7.80;5.47;;;;;;;13.43;71.53;102066.56;10524948;28;20032;-73
2022/06/16 03:43:05;;;;;;;5.28;4.80;;;;;;;13.58;70.68;102080.16;10523605;28;20107;-74
2022/06/16 03:48:06;;;;;;;7.65;4.72;;;;;;;13.73;70.52;102083.72;10540314;28;20070;-74
2022/06/16 03:53:07;;;;;;;4.53;4.13;;;;;;;13.86;69.54;102080.31;10540278;28;20065;-73
2022/06/16 03:58:07;;;;;;;8.45;5.43;;;;;;;13.94;70.46;102091.13;10541387;28;20061;-74
2022/06/16 04:08:27;;;;;;;5.47;4.97;;;;;;;13.95;69.80;102113.75;10549046;28;20463;-74
2022/06/16 04:13:27;;;;;;;5.53;4.90;;;;;;;13.95;69.78;102113.75;10514334;28;20052;-74
2022/06/16 04:18:27;;;;;;;6.57;5.90;;;;;;;13.96;69.83;102126.31;10529728;28;20043;-74
2022/06/16 04:23:28;;;;;;;10.90;4.50;;;;;;;14.05;69.76;102122.44;10547489;28;20511;-74
2022/06/16 04:28:28;;;;;;;7.25;4.85;;;;;;;14.12;69.29;102134.25;10547317;28;20058;-74
2022/06/16 04:33:28;;;;;;;13.68;5.05;;;;;;;14.17;68.60;102145.44;10530148;28;20032;-72
2022/06/16 04:38:29;;;;;;;5.28;4.78;;;;;;;14.50;68.09;102152.31;10546728;28;20028;-73
2022/06/16 04:43:29;;;;;;;4.80;4.30;;;;;;;15.59;68.30;102148.25;10528565;28;20142;-73
2022/06/16 04:48:30;;;;;;;4.57;4.15;;;;;;;16.23;68.64;102158.06;10528885;28;20043;-73
2022/06/16 04:53:31;;;;;;;9.20;5.38;;;;;;;17.24;66.59;102159.13;10527610;28;20397;-74
2022/06/16 04:58:31;;;;;;;5.43;4.65;;;;;;;18.12;66.04;102167.81;10527368;28;20040;-74
2022/06/16 05:03:32;;;;;;;8.23;5.55;;;;;;;17.60;66.05;102183.31;10513142;28;20060;-74
2022/06/16 05:08:32;;;;;;;10.15;5.18;;;;;;;17.25;65.63;102175.31;10511414;28;20040;-74
2022/06/16 05:13:32;;;;;;;3.63;3.42;;;;;;;17.14;65.22;102185.03;10526083;28;20059;-73
2022/06/16 05:18:33;;;;;;;4.28;3.88;;;;;;;17.33;65.01;102187.97;10527375;28;20028;-73
2022/06/16 05:23:33;;;;;;;3.95;3.65;;;;;;;18.11;63.89;102199.03;10511636;28;20465;-74
2022/06/16 05:28:35;;;;;;;4.75;4.03;;;;;;;19.08;63.49;102197.06;10544638;28;20119;-74
2022/06/16 05:33:36;;;;;;;5.60;3.78;;;;;;;19.45;61.77;102191.69;10526502;28;20119;-74
2022/06/16 05:38:36;;;;;;;7.00;2.85;;;;;;;20.38;60.05;102177.75;10544147;28;20547;-74
2022/06/16 05:43:36;;;;;;;6.70;3.35;;;;;;;20.90;58.58;102180.88;10526095;28;20032;-74
2022/06/16 05:48:37;;;;;;;2.78;2.45;;;;;;;21.08;56.23;102185.44;10526452;28;20389;-74
2022/06/16 05:53:37;;;;;;;3.50;3.10;;;;;;;21.13;54.75;102191.09;10494634;28;20564;-74
2022/06/16 05:58:38;;;;;;;3.05;2.85;;;;;;;21.68;53.79;102189.97;10526588;28;20127;-74
2022/06/16 06:03:38;;;;;;;6.03;4.25;;;;;;;21.87;48.68;102195.34;10525915;28;20156;-74
2022/06/16 06:19:31;;;;;;;2.83;2.63;;;;;;;22.67;47.62;102197.31;10527780;28;20036;-74
2022/06/16 06:24:45;;;;;;;2.30;2.20;;;;;;;22.85;42.42;102193.50;10527125;28;20074;-74
2022/06/16 06:29:46;;;;;;;2.63;2.53;;;;;;;23.27;43.83;102198.69;10524427;28;20517;-74
2022/06/16 06:34:46;;;;;;;3.22;2.45;;;;;;;23.16;42.18;102203.19;10508238;28;20032;-74
2022/06/16 06:39:47;;;;;;;5.88;3.00;;;;;;;23.21;41.03;102206.03;10541947;28;20028;-75
2022/06/16 06:44:47;;;;;;;2.47;2.30;;;;;;;23.31;39.06;102206.22;10523294;28;20162;-74
2022/06/16 06:49:48;;;;;;;8.38;2.83;;;;;;;23.50;40.49;102205.97;10525482;28;20528;-74
2022/06/16 06:54:48;;;;;;;7.43;2.85;;;;;;;23.69;39.60;102217.63;10540896;28;20036;-74
2022/06/16 06:59:49;;;;;;;4.90;2.17;;;;;;;24.00;39.75;102214.19;10506942;28;20488;-74
2022/06/16 07:04:49;;;;;;;7.70;2.97;;;;;;;24.21;39.84;102220.81;10522323;28;20027;-74
2022/06/16 07:09:50;;;;;;;6.05;3.20;;;;;;;24.54;40.50;102219.06;10540842;28;20036;-73
2022/06/16 07:14:50;;;;;;;6.80;1.88;;;;;;;25.11;41.58;102224.09;10523478;28;20472;-74
2022/06/16 07:19:51;;;;;;;3.50;2.97;;;;;;;25.72;40.30;102230.13;10490084;28;20461;-74
2022/06/16 07:24:51;;;;;;;2.72;2.53;;;;;;;25.95;38.96;102233.63;10540777;28;20122;-74
2022/06/16 07:29:52;;;;;;;2.80;2.40;;;;;;;25.91;35.25;102238.03;10539116;28;20032;-74
2022/06/16 07:34:53;;;;;;;4.97;2.70;;;;;;;25.87;34.96;102248.84;10504068;28;20081;-74
2022/06/16 07:39:53;;;;;;;4.45;2.47;;;;;;;26.34;38.00;102256.31;10505907;28;20036;-74
2022/06/16 07:44:53;;;;;;;2.63;2.40;;;;;;;26.43;37.73;102256.66;10540390;28;20082;-74
2022/06/16 07:49:54;;;;;;;2.67;2.47;;;;;;;26.54;36.59;102258.38;10541105;28;20047;-74
2022/06/16 07:54:54;;;;;;;3.10;2.90;;;;;;;26.62;33.13;102266.19;10523164;28;20036;-74
2022/06/16 07:59:56;;;;;;;2.55;2.22;;;;;;;26.58;33.37;102264.22;10521249;28;20072;-74
2022/06/16 08:04:56;;;;;;;5.43;2.55;;;;;;;27.06;34.64;102259.34;10538765;28;20036;-74
2022/06/16 08:09:57;;;;;;;7.18;3.30;;;;;;;27.30;32.91;102260.50;10522086;28;20111;-74
2022/06/16 08:14:58;;;;;;;2.15;2.05;;;;;;;27.46;34.27;102264.13;10538653;28;20056;-74
2022/06/16 08:19:58;;;;;;;6.45;2.85;;;;;;;27.91;32.73;102259.66;10520790;28;20465;-74
2022/06/16 08:24:59;;;;;;;4.68;3.05;;;;;;;28.27;35.26;102249.25;10522350;28;20028;-74
2022/06/16 08:30:00;;;;;;;7.95;2.95;;;;;;;28.10;32.47;102259.88;10523047;28;20040;-75
2022/06/16 08:35:00;;;;;;;5.32;2.47;;;;;;;28.29;34.04;102260.91;10521725;28;20208;-74
2022/06/16 08:40:00;;;;;;;2.65;2.40;;;;;;;28.54;32.87;102266.72;10538227;28;20101;-75
2022/06/16 08:45:40;;;;;;;5.45;2.72;;;;;;;28.68;29.22;102268.56;10488602;28;20389;-74
2022/06/16 08:50:49;;;;;;;6.22;2.55;;;;;;;29.01;30.35;102265.38;10544996;28;20032;-75
2022/06/16 08:55:58;;;;;;;4.18;2.88;;;;;;;28.77;30.94;102274.38;10527296;28;20044;-75
2022/06/16 09:01:05;;;;;;;1.73;1.63;;;;;;;29.23;30.67;102268.56;10528099;28;20028;-74
2022/06/16 09:06:06;;;;;;;3.75;2.40;;;;;;;29.91;33.60;102272.44;10528738;28;20089;-75
2022/06/16 09:11:13;;;;;;;3.45;2.28;;;;;;;29.12;29.88;102269.75;10545479;28;20199;-74
2022/06/16 09:16:22;;;;;;;3.58;2.30;;;;;;;29.76;33.89;102270.63;10511338;28;20075;-74
2022/06/16 09:21:43;;;;;;;4.40;2.30;;;;;;;29.84;28.58;102275.56;10548195;28;20035;-75
2022/06/16 09:27:05;;;;;;;5.18;2.83;;;;;;;30.08;33.11;102261.63;10544502;28;20026;-75
2022/06/16 09:32:18;;;;;;;2.58;2.47;;;;;;;30.11;32.85;102267.44;10544670;28;20044;-74
2022/06/16 09:37:42;;;;;;;5.72;2.45;;;;;;;30.38;28.53;102260.47;10526221;28;20479;-75
2022/06/16 09:42:44;;;;;;;6.53;3.45;;;;;;;29.89;30.37;102275.50;10527064;28;20059;-75
2022/06/16 09:48:20;;;;;;;2.45;2.00;;;;;;;30.27;31.96;102272.88;10510274;28;20461;-74
2022/06/16 09:53:29;;;;;;;3.50;2.80;;;;;;;30.73;33.66;102267.53;10522641;28;20473;-75
2022/06/16 09:58:46;;;;;;;3.22;2.60;;;;;;;31.39;32.97;102273.28;10525982;28;20032;-75
2022/06/16 10:03:49;;;;;;;2.13;2.03;;;;;;;32.21;33.48;102274.59;10526518;28;20098;-75
2022/06/16 10:09:18;;;;;;;2.50;2.30;;;;;;;31.98;31.41;102280.09;10526140;28;20051;-74
2022/06/16 10:14:37;;;;;;;5.63;3.30;;;;;;;31.69;29.56;102281.16;10542737;28;20101;-75
2022/06/16 10:19:39;;;;;;;2.85;2.63;;;;;;;31.34;30.72;102281.78;10542613;28;20051;-75
2022/06/16 10:24:50;;;;;;;4.70;3.45;;;;;;;31.13;27.38;102276.47;10508109;28;20024;-75
2022/06/16 10:29:55;;;;;;;8.00;3.13;;;;;;;30.45;28.58;102276.88;10524609;28;20089;-75
2022/06/16 10:34:55;;;;;;;3.87;2.50;;;;;;;31.13;31.47;102279.25;10524025;28;20058;-75
2022/06/16 10:40:07;;;;;;;3.60;2.70;;;;;;;31.19;29.03;102286.44;10524704;28;20043;-75
2022/06/16 10:45:13;;;;;;;2.47;2.33;;;;;;;32.03;31.93;102294.00;10540283;28;20265;-75
2022/06/16 10:50:22;;;;;;;4.78;2.70;;;;;;;32.40;30.91;102284.56;10524428;28;20039;-74
2022/06/16 10:55:25;;;;;;;6.15;2.40;;;;;;;32.64;31.14;102283.50;10541501;28;20066;-75
2022/06/16 11:00:25;;;;;;;6.68;3.30;;;;;;;32.91;31.74;102282.63;10542476;28;20032;-75
2022/06/16 11:05:26;;;;;;;4.60;3.17;;;;;;;32.88;28.71;102278.47;10506055;28;20522;-75
2022/06/16 11:10:36;;;;;;;7.45;3.10;;;;;;;33.00;31.35;102277.13;10521766;28;20389;-75
2022/06/16 11:15:39;;;;;;;4.05;2.95;;;;;;;32.50;30.96;102263.09;10522390;28;20090;-75
2022/06/16 11:20:41;;;;;;;3.65;2.83;;;;;;;32.99;32.04;102248.22;10524991;28;20028;-74
2022/06/16 11:25:42;;;;;;;4.60;3.50;;;;;;;32.83;31.23;102252.50;10521481;28;20028;-75
2022/06/16 11:30:45;;;;;;;7.80;3.70;;;;;;;32.92;31.16;102270.25;10539819;28;20028;-75
2022/06/16 11:35:50;;;;;;;5.68;4.38;;;;;;;32.85;31.44;102267.06;10540125;28;20328;-75
2022/06/16 11:40:55;;;;;;;3.97;3.03;;;;;;;33.38;30.75;102269.19;10505520;28;20031;-75
2022/06/16 11:46:20;;;;;;;5.53;3.75;;;;;;;33.33;28.97;102281.34;10504737;28;20043;-75
2022/06/16 11:51:30;;;;;;;7.10;3.80;;;;;;;31.90;30.96;102300.41;10526657;28;20075;-75
2022/06/16 11:56:39;;;;;;;2.40;2.25;;;;;;;32.61;30.30;102298.16;10522462;28;20057;-75
2022/06/16 12:01:46;;;;;;;8.70;4.00;;;;;;;33.22;31.05;102298.78;10539312;28;20534;-75
2022/06/16 12:06:55;;;;;;;6.03;2.72;;;;;;;33.95;31.00;102299.41;10521767;28;20036;-75
2022/06/16 12:12:34;;;;;;;2.75;2.55;;;;;;;34.35;32.30;102285.41;10540062;28;20039;-75
2022/06/16 12:17:39;;;;;;;3.28;3.08;;;;;;;33.74;28.14;102293.53;10533927;28;20405;-74
2022/06/16 12:22:49;;;;;;;;;;;;;;;32.73;30.02;102297.63;10528639;28;20076;-75
2022/06/16 12:28:02;;;;;;;10.55;2.92;;;;;;;33.09;31.17;102297.69;10548363;28;19916;-74
2022/06/16 12:33:12;;;;;;;7.07;3.28;;;;;;;33.48;30.13;102299.78;10530696;28;20028;-75
2022/06/16 12:38:41;;;;;;;2.72;2.53;;;;;;;32.61;27.22;102292.56;10529880;28;20107;-75
2022/06/16 12:43:44;;;;;;;4.05;2.90;;;;;;;32.09;30.19;102284.34;10535359;28;20047;-74
2022/06/16 12:48:48;;;;;;;2.85;2.60;;;;;;;32.26;28.38;102282.91;10547922;28;20038;-74
2022/06/16 12:54:05;;;;;;;3.40;3.10;;;;;;;31.72;30.37;102283.34;10529425;28;20024;-75
2022/06/16 12:59:13;;;;;;;2.90;2.70;;;;;;;31.93;31.80;102283.81;10528216;28;20039;-74
2022/06/16 13:04:17;;;;;;;4.22;2.88;;;;;;;31.27;29.78;102276.50;10495884;28;20028;-74
2022/06/16 13:09:17;;;;;;;4.20;3.08;;;;;;;31.52;31.41;102266.91;10546402;28;20075;-75
2022/06/16 13:14:39;;;;;;;2.78;2.40;;;;;;;31.91;31.13;102274.91;10511077;28;20056;-75
2022/06/16 13:19:56;;;;;;;2.50;2.30;;;;;;;32.20;31.55;102285.00;10528969;28;20066;-74
2022/06/16 13:24:58;;;;;;;2.95;2.67;;;;;;;32.46;31.48;102290.09;10529787;28;20449;-74
2022/06/16 13:30:05;;;;;;;3.13;2.85;;;;;;;32.81;29.45;102288.47;10526848;28;20479;-74
2022/06/16 13:35:14;;;;;;;3.92;2.50;;;;;;;31.99;30.95;102281.75;10544069;28;20563;-74
2022/06/16 13:40:14;;;;;;;2.88;2.67;;;;;;;31.31;31.07;102285.16;10544460;28;20028;-75
2022/06/16 13:45:14;;;;;;;3.78;3.15;;;;;;;31.66;31.58;102287.38;10526071;28;20377;-74
2022/06/16 13:50:22;;;;;;;9.30;2.80;;;;;;;32.30;31.86;102283.94;10544600;28;20378;-74
2022/06/16 13:55:30;;;;;;;2.70;2.35;;;;;;;32.45;29.75;102291.22;10526835;28;20047;-75
2022/06/16 14:00:32;;;;;;;3.83;2.95;;;;;;;30.81;29.65;102282.81;10510739;28;20063;-74
2022/06/16 14:05:33;;;;;;;3.63;2.42;;;;;;;30.59;31.92;102280.56;10525446;28;20028;-74
2022/06/16 14:10:56;;;;;;;6.25;2.75;;;;;;;30.59;30.94;102284.19;10507778;28;20044;-74
2022/06/16 14:16:17;;;;;;;4.95;3.65;;;;;;;30.22;31.48;102272.97;10543191;28;20087;-75
2022/06/16 14:21:18;;;;;;;5.15;3.58;;;;;;;30.38;31.57;102265.19;10524807;28;20032;-75
2022/06/16 14:26:21;;;;;;;3.33;2.50;;;;;;;29.94;31.22;102267.09;10523839;28;20466;-74
2022/06/16 14:31:25;;;;;;;3.20;2.97;;;;;;;30.35;32.49;102253.50;10523693;28;20028;-74
2022/06/16 14:36:37;;;;;;;3.50;2.30;;;;;;;30.66;32.49;102244.69;10524201;28;20035;-74
2022/06/16 14:41:49;;;;;;;2.83;2.63;;;;;;;30.61;31.10;102278.31;10525420;28;20115;-74
2022/06/16 14:47:09;;;;;;;3.75;2.45;;;;;;;30.36;31.90;102287.88;10542862;28;20463;-74
2022/06/16 14:52:11;;;;;;;2.05;1.95;;;;;;;29.78;32.86;102285.97;10542263;28;20024;-74
2022/06/16 14:57:25;;;;;;;3.72;2.53;;;;;;;28.58;33.99;102295.69;10540603;28;20028;-74
2022/06/16 15:02:28;;;;;;;4.20;3.45;;;;;;;28.56;33.31;102290.41;10540729;28;20125;-74
2022/06/16 15:07:28;;;;;;;4.63;1.95;;;;;;;28.93;33.17;102286.28;10505868;28;20103;-74
2022/06/16 15:12:29;;;;;;;2.90;2.70;;;;;;;29.68;33.94;102288.84;10541077;28;20382;-73
2022/06/16 15:22:53;;;;;;;3.25;2.83;;;;;;;29.75;34.12;102274.56;10512642;28;20032;-74
2022/06/16 15:27:53;;;;;;;4.65;3.47;;;;;;;29.86;34.69;102276.91;10522211;28;20153;-74
2022/06/16 15:38:14;;;;;;;9.32;3.80;;;;;;;29.12;34.72;102278.09;10511230;28;20245;-74
2022/06/16 15:43:16;;;;;;;6.78;3.42;;;;;;;29.10;35.32;102291.50;10539867;28;20119;-74
2022/06/16 15:48:17;;;;;;;6.75;3.95;;;;;;;28.42;35.50;102273.44;10522533;28;20063;-74
2022/06/16 15:53:19;;;;;;;2.78;2.58;;;;;;;27.84;35.84;102255.50;10523025;28;20494;-74
2022/06/16 15:58:21;;;;;;;6.55;4.25;;;;;;;27.97;36.00;102264.09;10548452;28;20032;-74
2022/06/16 16:03:24;;;;;;;3.03;2.60;;;;;;;27.66;36.10;102251.31;10531702;28;20412;-74
2022/06/16 16:08:27;;;;;;;6.97;3.80;;;;;;;27.28;36.22;102259.09;10530470;28;20039;-74
2022/06/16 16:13:27;;;;;;;6.22;3.17;;;;;;;26.97;36.30;102245.16;10547348;28;20078;-74
2022/06/16 16:18:35;;;;;;;3.20;2.85;;;;;;;26.89;36.27;102251.25;10547707;28;20036;-74
2022/06/16 16:23:42;;;;;;;5.85;4.28;;;;;;;26.84;36.29;102240.13;10529842;28;20418;-74
2022/06/16 16:28:50;;;;;;;4.40;4.00;;;;;;;26.74;36.50;102240.09;10512823;28;20024;-74
2022/06/16 16:33:59;;;;;;;4.13;3.13;;;;;;;26.55;36.68;102242.56;10528772;28;20024;-74
2022/06/16 16:39:20;;;;;;;6.85;3.17;;;;;;;26.51;36.57;102230.31;10528719;28;20031;-73
2022/06/16 16:44:48;;;;;;;4.25;3.88;;;;;;;26.57;36.32;102243.09;10528541;28;20085;-74
2022/06/16 16:49:56;;;;;;;3.85;3.30;;;;;;;26.61;36.53;102263.66;10545749;28;20449;-74
2022/06/16 16:54:58;;;;;;;3.97;3.55;;;;;;;26.37;37.05;102271.63;10511834;28;20457;-74
2022/06/16 16:59:59;;;;;;;4.22;3.78;;;;;;;26.01;37.26;102271.44;10545968;28;20032;-74
2022/06/16 17:04:59;;;;;;;5.10;3.40;;;;;;;25.86;37.31;102254.69;10544273;28;20416;-74
2022/06/16 17:10:00;;;;;;;10.45;4.32;;;;;;;25.69;37.52;102263.13;10527587;28;20123;-74
2022/06/16 17:15:01;;;;;;;3.40;3.20;;;;;;;25.36;37.78;102248.44;10545855;28;20059;-74
2022/06/16 17:20:01;;;;;;;6.78;3.63;;;;;;;25.04;37.69;102268.63;10529031;28;20039;-74
2022/06/16 17:25:08;;;;;;;3.87;3.40;;;;;;;24.73;38.11;102261.06;10546398;28;20465;-73
2022/06/16 17:30:09;;;;;;;3.95;3.55;;;;;;;24.52;38.39;102276.63;10546314;28;20269;-74
2022/06/16 17:35:16;;;;;;;10.43;4.45;;;;;;;24.24;38.60;102248.00;10545570;28;20028;-74
2022/06/16 17:40:18;;;;;;;5.25;3.83;;;;;;;23.99;38.59;102222.75;10512261;28;20040;-73
2022/06/16 17:45:19;;;;;;;2.95;2.75;;;;;;;23.78;38.56;102236.28;10545570;28;20040;-74
2022/06/16 17:50:19;;;;;;;4.70;3.22;;;;;;;23.67;38.78;102239.94;10509861;28;20032;-73
2022/06/16 18:00:41;;;;;;;6.65;3.38;;;;;;;23.24;39.38;102233.19;10528615;28;20070;-74
2022/06/16 18:05:41;;;;;;;4.85;3.85;;;;;;;23.06;39.33;102239.75;10525625;28;20123;-73
2022/06/16 18:10:41;;;;;;;2.90;2.67;;;;;;;22.88;39.59;102232.53;10525002;28;20032;-73
2022/06/16 18:15:42;;;;;;;4.22;3.70;;;;;;;22.68;40.32;102224.66;10525574;28;20056;-74
2022/06/16 18:20:43;;;;;;;4.10;2.85;;;;;;;22.59;40.31;102231.69;10509545;28;20028;-74
2022/06/16 18:25:45;;;;;;;4.70;3.08;;;;;;;22.54;40.12;102236.25;10525674;28;20084;-73
2022/06/16 18:30:46;;;;;;;5.78;3.33;;;;;;;22.46;40.17;102245.75;10491864;28;20032;-73
2022/06/16 18:35:46;;;;;;;3.38;3.08;;;;;;;22.41;40.28;102238.22;10525871;28;20059;-74
2022/06/16 18:40:47;;;;;;;4.55;3.33;;;;;;;22.35;40.57;102241.13;10523684;28;20066;-73
2022/06/16 18:45:48;;;;;;;3.55;3.33;;;;;;;22.27;40.84;102234.91;10507227;28;20108;-74
2022/06/16 18:50:49;;;;;;;4.32;3.40;;;;;;;22.25;40.82;102241.75;10524054;28;20374;-73
2022/06/16 18:55:49;;;;;;;5.38;3.00;;;;;;;22.24;40.77;102251.94;10523849;28;20032;-73
2022/06/16 19:00:50;;;;;;;2.22;2.03;;;;;;;22.16;41.00;102266.09;10523149;28;20039;-73
2022/06/16 19:05:51;;;;;;;3.28;2.97;;;;;;;22.04;40.88;102268.81;10524908;28;20032;-73
2022/06/16 19:10:51;;;;;;;4.72;2.83;;;;;;;21.92;40.87;102279.06;10539760;28;20106;-73
2022/06/16 19:15:54;;;;;;;3.28;2.97;;;;;;;21.83;40.91;102280.50;10541092;28;20044;-73
2022/06/16 19:20:59;;;;;;;9.57;3.40;;;;;;;21.67;41.26;102273.75;10542212;28;20122;-73
2022/06/16 19:26:03;;;;;;;2.97;2.67;;;;;;;21.58;41.29;102280.69;10523127;28;20055;-73
2022/06/16 19:31:03;;;;;;;6.60;4.28;;;;;;;21.50;41.16;102281.03;10522027;28;20024;-73
2022/06/16 19:36:04;;;;;;;47.75;4.53;;;;;;;21.39;41.51;102279.94;10522359;28;20032;-73
2022/06/16 19:41:07;;;;;;;4.63;3.83;;;;;;;21.27;41.73;102296.41;10522421;28;20028;-74
2022/06/16 19:51:29;;;;;;;4.97;3.35;;;;;;;20.88;41.99;102304.16;10540547;28;20031;-73
2022/06/16 19:56:30;;;;;;;4.10;3.65;;;;;;;20.77;42.16;102315.13;10522896;28;20032;-73
2022/06/16 20:01:30;;;;;;;5.65;3.30;;;;;;;20.63;42.28;102311.69;10538873;28;20035;-73
2022/06/16 20:06:31;;;;;;;3.55;3.33;;;;;;;20.56;42.44;102314.53;10540148;28;20070;-73
2022/06/16 20:11:31;;;;;;;3.17;2.88;;;;;;;20.46;42.79;102321.63;10522571;28;20107;-73
2022/06/16 20:16:31;;;;;;;3.75;3.45;;;;;;;20.33;42.76;102326.19;10540826;28;20076;-73
2022/06/16 20:21:32;;;;;;;4.32;3.92;;;;;;;20.24;42.80;102334.97;10521886;28;20036;-73
2022/06/16 20:26:32;;;;;;;5.43;3.38;;;;;;;20.04;42.96;102330.50;10504424;28;20493;-73
2022/06/16 20:31:33;;;;;;;4.53;3.72;;;;;;;19.89;43.31;102328.09;10505031;28;20145;-74
2022/06/16 20:36:33;;;;;;;3.78;3.47;;;;;;;19.77;43.59;102318.06;10538391;28;20032;-73
2022/06/16 20:46:53;;;;;;;13.60;4.60;;;;;;;19.49;44.75;102328.38;10547710;28;20032;-73
2022/06/16 20:51:55;;;;;;;5.45;3.58;;;;;;;19.34;44.58;102332.53;10511726;28;20031;-73
2022/06/16 20:56:56;;;;;;;5.60;3.88;;;;;;;19.28;45.25;102334.22;10545466;28;20473;-73
2022/06/16 21:02:02;;;;;;;3.22;2.92;;;;;;;19.19;45.09;102349.28;10529434;28;20032;-73
2022/06/16 21:07:03;;;;;;;9.13;3.25;;;;;;;19.05;45.36;102343.03;10530156;28;20032;-73
2022/06/16 21:12:19;;;;;;;5.50;4.32;;;;;;;18.91;45.69;102328.50;10545268;28;20436;-73
2022/06/16 21:17:27;;;;;;;4.28;3.90;;;;;;;18.83;46.75;102322.44;10529583;28;20052;-74
2022/06/16 21:22:37;;;;;;;7.45;4.07;;;;;;;18.75;47.62;102331.75;10543881;28;20044;-72
2022/06/16 21:27:38;;;;;;;4.45;4.05;;;;;;;18.63;47.22;102337.03;10528336;28;20064;-72
2022/06/16 21:32:38;;;;;;;6.75;4.38;;;;;;;18.53;47.03;102340.22;10544839;28;20118;-73
2022/06/16 21:37:39;;;;;;;5.70;4.90;;;;;;;18.42;47.51;102354.63;10544594;28;20032;-73
2022/06/16 21:42:39;;;;;;;11.50;4.30;;;;;;;18.34;47.53;102336.47;10544307;28;20070;-73
2022/06/16 21:47:45;;;;;;;3.83;3.53;;;;;;;18.23;47.57;102341.78;10545262;28;20032;-73
2022/06/16 21:52:45;;;;;;;5.80;5.18;;;;;;;18.16;48.25;102339.06;10526531;28;20031;-73
2022/06/16 21:57:48;;;;;;;4.78;4.38;;;;;;;18.08;49.24;102329.13;10543121;28;20032;-73
2022/06/16 22:02:49;;;;;;;10.63;4.30;;;;;;;18.00;50.52;102323.06;10525616;28;20461;-73
2022/06/16 22:07:53;;;;;;;9.20;5.60;;;;;;;17.95;52.30;102331.06;10541625;28;20039;-73
2022/06/16 22:12:53;;;;;;;7.57;4.78;;;;;;;17.96;51.99;102324.50;10525742;28;20079;-73
2022/06/16 22:17:54;;;;;;;5.13;4.28;;;;;;;17.93;51.36;102316.72;10525588;28;20073;-73
2022/06/16 22:22:55;;;;;;;4.95;4.45;;;;;;;17.91;50.88;102324.31;10524723;28;20059;-73
2022/06/16 22:28:00;;;;;;;9.68;4.30;;;;;;;17.83;50.75;102317.13;10507855;28;20027;-73
2022/06/16 22:33:01;;;;;;;5.57;5.00;;;;;;;17.77;51.54;102321.59;10508253;28;20028;-73
2022/06/16 22:38:01;;;;;;;7.95;4.63;;;;;;;17.74;51.93;102330.19;10525207;28;20085;-73
2022/06/16 22:43:17;;;;;;;11.07;5.40;;;;;;;17.67;52.86;102321.94;10541393;28;20393;-73
2022/06/16 22:48:20;;;;;;;7.30;5.32;;;;;;;17.60;52.95;102336.69;10540774;28;20032;-74
2022/06/16 22:53:21;;;;;;;7.53;5.35;;;;;;;17.54;55.19;102329.31;10543438;28;20036;-73
2022/06/16 22:58:22;;;;;;;7.22;6.30;;;;;;;17.56;54.35;102332.69;10524034;28;20032;-73
2022/06/16 23:03:22;;;;;;;5.88;5.20;;;;;;;17.50;54.31;102336.28;10505876;28;20058;-73
2022/06/16 23:08:26;;;;;;;5.35;4.85;;;;;;;17.43;54.96;102336.25;10523306;28;20032;-73
2022/06/16 23:13:26;;;;;;;4.57;4.22;;;;;;;17.36;56.91;102329.94;10508793;28;20131;-73
2022/06/16 23:18:28;;;;;;;7.45;4.97;;;;;;;17.26;56.50;102335.81;10541134;28;20038;-73
2022/06/16 23:23:29;;;;;;;6.07;5.55;;;;;;;17.16;55.60;102338.91;10524481;28;20028;-73
2022/06/16 23:28:29;;;;;;;6.75;5.65;;;;;;;17.10;55.52;102338.91;10522681;28;20039;-73
2022/06/16 23:33:30;;;;;;;25.67;14.93;;;;;;;17.03;55.48;102330.69;10540954;28;20035;-73
2022/06/16 23:38:35;;;;;;;11.35;7.25;;;;;;;16.98;55.75;102329.63;10540311;28;20077;-73
2022/06/16 23:43:36;;;;;;;6.82;6.15;;;;;;;16.98;55.96;102332.38;10538135;28;20124;-73
2022/06/16 23:48:36;;;;;;;9.48;6.18;;;;;;;16.94;56.68;102323.69;10523098;28;20044;-73
2022/06/16 23:53:36;;;;;;;11.48;5.95;;;;;;;16.96;57.07;102322.44;10521724;28;20040;-73
2022/06/16 23:58:37;;;;;;;12.73;6.32;;;;;;;16.95;56.75;102331.72;10522469;28;20051;-73
